sensor_id;sensor_type;location;lat;lon;timestamp;temperature;humidity
10175;DHT22;18221;38.704;0.152;2024-01-30T00:00:58;12.20;99.90
10175;DHT22;18221;38.704;0.152;2024-01-30T00:03:27;12.20;99.90
10175;DHT22;18221;38.704;0.152;2024-01-30T00:05:55;12.20;99.90
10175;DHT22;18221;38.704;0.152;2024-01-30T00:08:23;12.10;99.90
10175;DHT22;18221;38.704;0.152;2024-01-30T00:10:51;12.10;99.90
10175;DHT22;18221;38.704;0.152;2024-01-30T00:13:19;12.10;99.90
10175;DHT22;18221;38.704;0.152;2024-01-30T00:15:47;12.10;99.90
10175;DHT22;18221;38.704;0.152;2024-01-30T00:18:15;12.10;99.90
10175;DHT22;18221;38.704;0.152;2024-01-30T00:20:45;12.10;99.90
10175;DHT22;18221;38.704;0.152;2024-01-30T00:23:13;12.10;99.90
10175;DHT22;18221;38.704;0.152;2024-01-30T00:25:41;12.10;99.90
10175;DHT22;18221;38.704;0.152;2024-01-30T00:28:12;12.10;99.90
10175;DHT22;18221;38.704;0.152;2024-01-30T00:30:40;12.10;99.90
10175;DHT22;18221;38.704;0.152;2024-01-30T00:33:08;12.10;99.90
10175;DHT22;18221;38.704;0.152;2024-01-30T00:35:37;11.40;99.90
10175;DHT22;18221;38.704;0.152;2024-01-30T00:38:06;12.10;99.90
10175;DHT22;18221;38.704;0.152;2024-01-30T00:40:34;12.10;99.90
10175;DHT22;18221;38.704;0.152;2024-01-30T00:43:02;12.20;99.90
10175;DHT22;18221;38.704;0.152;2024-01-30T00:45:30;12.10;99.90
10175;DHT22;18221;38.704;0.152;2024-01-30T00:47:58;12.10;99.90
10175;DHT22;18221;38.704;0.152;2024-01-30T01:03:24;12.10;99.90
10175;DHT22;18221;38.704;0.152;2024-01-30T01:05:52;12.10;99.90
10175;DHT22;18221;38.704;0.152;2024-01-30T01:08:20;12.10;99.90
10175;DHT22;18221;38.704;0.152;2024-01-30T01:10:49;12.10;99.90
10175;DHT22;18221;38.704;0.152;2024-01-30T01:13:17;12.10;99.90
10175;DHT22;18221;38.704;0.152;2024-01-30T01:15:44;12.20;99.90
10175;DHT22;18221;38.704;0.152;2024-01-30T01:18:12;12.10;99.90
10175;DHT22;18221;38.704;0.152;2024-01-30T01:20:42;12.10;99.90
10175;DHT22;18221;38.704;0.152;2024-01-30T01:23:10;12.10;99.90
10175;DHT22;18221;38.704;0.152;2024-01-30T01:25:38;12.10;99.90
10175;DHT22;18221;38.704;0.152;2024-01-30T01:28:06;12.10;99.90
10175;DHT22;18221;38.704;0.152;2024-01-30T01:30:33;12.10;99.90
10175;DHT22;18221;38.704;0.152;2024-01-30T01:33:01;12.10;99.90
10175;DHT22;18221;38.704;0.152;2024-01-30T01:35:30;12.10;99.90
10175;DHT22;18221;38.704;0.152;2024-01-30T01:37:59;12.10;99.90
10175;DHT22;18221;38.704;0.152;2024-01-30T01:40:27;12.10;99.90
10175;DHT22;18221;38.704;0.152;2024-01-30T01:42:56;12.10;99.90
10175;DHT22;18221;38.704;0.152;2024-01-30T01:45:23;12.10;99.90
10175;DHT22;18221;38.704;0.152;2024-01-30T01:47:52;12.00;99.90
10175;DHT22;18221;38.704;0.152;2024-01-30T01:50:20;12.00;99.90
10175;DHT22;18221;38.704;0.152;2024-01-30T01:52:49;12.10;99.90
10175;DHT22;18221;38.704;0.152;2024-01-30T01:55:20;12.00;99.90
10175;DHT22;18221;38.704;0.152;2024-01-30T01:57:51;12.00;99.90
10175;DHT22;18221;38.704;0.152;2024-01-30T02:00:20;12.00;99.90
10175;DHT22;18221;38.704;0.152;2024-01-30T02:02:48;12.10;99.90
10175;DHT22;18221;38.704;0.152;2024-01-30T02:05:17;12.00;99.90
10175;DHT22;18221;38.704;0.152;2024-01-30T02:07:46;12.00;99.90
10175;DHT22;18221;38.704;0.152;2024-01-30T02:10:14;12.00;99.90
10175;DHT22;18221;38.704;0.152;2024-01-30T02:12:44;12.00;99.90
10175;DHT22;18221;38.704;0.152;2024-01-30T02:15:13;12.00;99.90
10175;DHT22;18221;38.704;0.152;2024-01-30T02:17:41;12.00;99.90
10175;DHT22;18221;38.704;0.152;2024-01-30T02:20:11;12.00;99.90
10175;DHT22;18221;38.704;0.152;2024-01-30T02:22:41;12.00;99.90
10175;DHT22;18221;38.704;0.152;2024-01-30T02:25:10;12.00;99.90
10175;DHT22;18221;38.704;0.152;2024-01-30T02:27:37;12.00;99.90
10175;DHT22;18221;38.704;0.152;2024-01-30T02:30:06;12.00;99.90
10175;DHT22;18221;38.704;0.152;2024-01-30T02:32:35;12.00;99.90
10175;DHT22;18221;38.704;0.152;2024-01-30T02:35:03;12.00;99.90
10175;DHT22;18221;38.704;0.152;2024-01-30T02:37:31;12.00;99.90
10175;DHT22;18221;38.704;0.152;2024-01-30T02:40:01;12.00;99.90
10175;DHT22;18221;38.704;0.152;2024-01-30T02:42:29;11.90;99.90
10175;DHT22;18221;38.704;0.152;2024-01-30T02:44:57;12.00;99.90
10175;DHT22;18221;38.704;0.152;2024-01-30T02:47:25;12.00;99.90
10175;DHT22;18221;38.704;0.152;2024-01-30T02:49:53;12.00;99.90
10175;DHT22;18221;38.704;0.152;2024-01-30T02:52:21;11.90;99.90
10175;DHT22;18221;38.704;0.152;2024-01-30T02:54:49;12.00;99.90
10175;DHT22;18221;38.704;0.152;2024-01-30T02:57:18;11.90;99.90
10175;DHT22;18221;38.704;0.152;2024-01-30T02:59:46;11.90;99.90
10175;DHT22;18221;38.704;0.152;2024-01-30T03:02:14;11.90;99.90
10175;DHT22;18221;38.704;0.152;2024-01-30T03:04:42;11.90;99.90
10175;DHT22;18221;38.704;0.152;2024-01-30T03:07:10;11.90;99.90
10175;DHT22;18221;38.704;0.152;2024-01-30T03:09:38;11.90;99.90
10175;DHT22;18221;38.704;0.152;2024-01-30T03:12:06;12.00;99.90
10175;DHT22;18221;38.704;0.152;2024-01-30T03:14:36;11.90;99.90
10175;DHT22;18221;38.704;0.152;2024-01-30T03:17:04;11.90;99.90
10175;DHT22;18221;38.704;0.152;2024-01-30T03:19:31;11.90;99.90
10175;DHT22;18221;38.704;0.152;2024-01-30T03:21:59;11.90;99.90
10175;DHT22;18221;38.704;0.152;2024-01-30T03:24:27;11.90;99.90
10175;DHT22;18221;38.704;0.152;2024-01-30T03:26:55;11.90;99.90
10175;DHT22;18221;38.704;0.152;2024-01-30T03:29:23;11.90;99.90
10175;DHT22;18221;38.704;0.152;2024-01-30T03:31:52;11.90;99.90
10175;DHT22;18221;38.704;0.152;2024-01-30T03:34:20;11.90;99.90
10175;DHT22;18221;38.704;0.152;2024-01-30T03:36:48;11.90;99.90
10175;DHT22;18221;38.704;0.152;2024-01-30T03:39:16;11.90;99.90
10175;DHT22;18221;38.704;0.152;2024-01-30T03:41:44;11.80;99.90
10175;DHT22;18221;38.704;0.152;2024-01-30T03:44:12;11.90;99.90
10175;DHT22;18221;38.704;0.152;2024-01-30T03:46:40;11.90;99.90
10175;DHT22;18221;38.704;0.152;2024-01-30T03:49:09;11.90;99.90
10175;DHT22;18221;38.704;0.152;2024-01-30T03:51:37;11.90;99.90
10175;DHT22;18221;38.704;0.152;2024-01-30T03:54:05;11.90;99.90
10175;DHT22;18221;38.704;0.152;2024-01-30T03:56:34;11.90;99.90
10175;DHT22;18221;38.704;0.152;2024-01-30T03:59:02;11.90;99.90
10175;DHT22;18221;38.704;0.152;2024-01-30T04:01:33;11.90;99.90
10175;DHT22;18221;38.704;0.152;2024-01-30T04:04:01;11.90;99.90
10175;DHT22;18221;38.704;0.152;2024-01-30T04:06:30;11.90;99.90
10175;DHT22;18221;38.704;0.152;2024-01-30T04:08:58;11.90;99.90
10175;DHT22;18221;38.704;0.152;2024-01-30T04:11:26;11.90;99.90
10175;DHT22;18221;38.704;0.152;2024-01-30T04:13:54;11.60;99.90
10175;DHT22;18221;38.704;0.152;2024-01-30T04:16:22;11.90;99.90
10175;DHT22;18221;38.704;0.152;2024-01-30T04:18:50;11.90;99.90
10175;DHT22;18221;38.704;0.152;2024-01-30T04:21:20;11.90;99.90
10175;DHT22;18221;38.704;0.152;2024-01-30T04:23:51;11.90;99.90
10175;DHT22;18221;38.704;0.152;2024-01-30T04:26:19;11.80;99.90
10175;DHT22;18221;38.704;0.152;2024-01-30T04:28:47;11.80;99.90
10175;DHT22;18221;38.704;0.152;2024-01-30T04:31:14;11.80;99.90
10175;DHT22;18221;38.704;0.152;2024-01-30T04:33:42;11.80;99.90
10175;DHT22;18221;38.704;0.152;2024-01-30T04:36:10;11.80;99.90
10175;DHT22;18221;38.704;0.152;2024-01-30T04:38:38;11.90;99.90
10175;DHT22;18221;38.704;0.152;2024-01-30T04:41:07;11.80;99.90
10175;DHT22;18221;38.704;0.152;2024-01-30T04:43:35;11.90;99.90
10175;DHT22;18221;38.704;0.152;2024-01-30T04:46:04;11.80;99.90
10175;DHT22;18221;38.704;0.152;2024-01-30T04:48:32;11.90;99.90
10175;DHT22;18221;38.704;0.152;2024-01-30T04:51:00;11.90;99.90
10175;DHT22;18221;38.704;0.152;2024-01-30T04:53:30;11.80;99.90
10175;DHT22;18221;38.704;0.152;2024-01-30T04:55:58;11.90;99.90
10175;DHT22;18221;38.704;0.152;2024-01-30T04:58:27;11.90;99.90
10175;DHT22;18221;38.704;0.152;2024-01-30T05:00:55;11.90;99.90
10175;DHT22;18221;38.704;0.152;2024-01-30T05:03:23;11.90;99.90
10175;DHT22;18221;38.704;0.152;2024-01-30T05:05:51;11.90;99.90
10175;DHT22;18221;38.704;0.152;2024-01-30T05:08:19;11.90;99.90
10175;DHT22;18221;38.704;0.152;2024-01-30T05:10:47;11.90;99.90
10175;DHT22;18221;38.704;0.152;2024-01-30T05:13:15;11.90;99.90
10175;DHT22;18221;38.704;0.152;2024-01-30T05:15:44;11.90;99.90
10175;DHT22;18221;38.704;0.152;2024-01-30T05:18:12;11.90;99.90
10175;DHT22;18221;38.704;0.152;2024-01-30T05:20:40;11.90;99.90
10175;DHT22;18221;38.704;0.152;2024-01-30T05:23:08;11.90;99.90
10175;DHT22;18221;38.704;0.152;2024-01-30T05:25:35;11.90;99.90
10175;DHT22;18221;38.704;0.152;2024-01-30T05:28:04;11.90;99.90
10175;DHT22;18221;38.704;0.152;2024-01-30T05:30:32;11.80;99.90
10175;DHT22;18221;38.704;0.152;2024-01-30T05:33:01;11.90;99.90
10175;DHT22;18221;38.704;0.152;2024-01-30T05:35:29;11.80;99.90
10175;DHT22;18221;38.704;0.152;2024-01-30T05:37:57;11.90;99.90
10175;DHT22;18221;38.704;0.152;2024-01-30T05:40:25;11.90;99.90
10175;DHT22;18221;38.704;0.152;2024-01-30T05:42:53;11.90;99.90
10175;DHT22;18221;38.704;0.152;2024-01-30T05:45:21;11.90;99.90
10175;DHT22;18221;38.704;0.152;2024-01-30T05:47:50;11.90;99.90
10175;DHT22;18221;38.704;0.152;2024-01-30T05:50:22;11.90;99.90
10175;DHT22;18221;38.704;0.152;2024-01-30T05:52:51;11.80;99.90
10175;DHT22;18221;38.704;0.152;2024-01-30T05:55:19;11.80;99.90
10175;DHT22;18221;38.704;0.152;2024-01-30T05:57:50;11.80;99.90
10175;DHT22;18221;38.704;0.152;2024-01-30T06:00:20;11.80;99.90
10175;DHT22;18221;38.704;0.152;2024-01-30T06:02:48;11.80;99.90
10175;DHT22;18221;38.704;0.152;2024-01-30T06:05:16;11.80;99.90
10175;DHT22;18221;38.704;0.152;2024-01-30T06:07:45;11.80;99.90
10175;DHT22;18221;38.704;0.152;2024-01-30T06:10:14;11.80;99.90
10175;DHT22;18221;38.704;0.152;2024-01-30T06:12:42;11.80;99.90
10175;DHT22;18221;38.704;0.152;2024-01-30T06:15:10;11.80;99.90
10175;DHT22;18221;38.704;0.152;2024-01-30T06:17:38;11.70;99.90
10175;DHT22;18221;38.704;0.152;2024-01-30T06:20:07;12.00;99.90
10175;DHT22;18221;38.704;0.152;2024-01-30T06:22:35;11.70;99.90
10175;DHT22;18221;38.704;0.152;2024-01-30T06:25:05;11.70;99.90
10175;DHT22;18221;38.704;0.152;2024-01-30T06:27:33;11.70;99.90
10175;DHT22;18221;38.704;0.152;2024-01-30T06:30:01;11.70;99.90
10175;DHT22;18221;38.704;0.152;2024-01-30T06:32:29;11.70;99.90
10175;DHT22;18221;38.704;0.152;2024-01-30T06:35:00;11.60;99.90
10175;DHT22;18221;38.704;0.152;2024-01-30T06:37:31;11.60;99.90
10175;DHT22;18221;38.704;0.152;2024-01-30T06:39:59;11.60;99.90
10175;DHT22;18221;38.704;0.152;2024-01-30T06:42:28;11.60;99.90
10175;DHT22;18221;38.704;0.152;2024-01-30T06:44:56;11.60;99.90
10175;DHT22;18221;38.704;0.152;2024-01-30T06:47:24;11.60;99.90
10175;DHT22;18221;38.704;0.152;2024-01-30T06:49:52;11.60;99.90
10175;DHT22;18221;38.704;0.152;2024-01-30T06:52:20;11.60;99.90
10175;DHT22;18221;38.704;0.152;2024-01-30T06:54:48;11.60;99.90
10175;DHT22;18221;38.704;0.152;2024-01-30T06:57:16;11.60;99.90
10175;DHT22;18221;38.704;0.152;2024-01-30T06:59:46;11.60;99.90
10175;DHT22;18221;38.704;0.152;2024-01-30T07:02:14;11.60;99.90
10175;DHT22;18221;38.704;0.152;2024-01-30T07:04:42;11.60;99.90
10175;DHT22;18221;38.704;0.152;2024-01-30T07:07:10;11.60;99.90
10175;DHT22;18221;38.704;0.152;2024-01-30T07:09:39;11.20;99.90
10175;DHT22;18221;38.704;0.152;2024-01-30T07:12:07;11.70;99.90
10175;DHT22;18221;38.704;0.152;2024-01-30T07:14:36;11.70;99.90
10175;DHT22;18221;38.704;0.152;2024-01-30T07:17:05;11.70;99.90
10175;DHT22;18221;38.704;0.152;2024-01-30T07:19:33;11.70;99.90
10175;DHT22;18221;38.704;0.152;2024-01-30T07:22:01;11.70;99.90
10175;DHT22;18221;38.704;0.152;2024-01-30T07:24:29;11.70;99.90
10175;DHT22;18221;38.704;0.152;2024-01-30T07:26:57;11.70;99.90
10175;DHT22;18221;38.704;0.152;2024-01-30T07:29:25;11.70;99.90
10175;DHT22;18221;38.704;0.152;2024-01-30T07:31:53;12.10;99.90
10175;DHT22;18221;38.704;0.152;2024-01-30T07:34:23;11.70;99.90
10175;DHT22;18221;38.704;0.152;2024-01-30T07:36:50;11.80;99.90
10175;DHT22;18221;38.704;0.152;2024-01-30T07:39:18;11.70;99.90
10175;DHT22;18221;38.704;0.152;2024-01-30T07:41:46;11.80;99.90
10175;DHT22;18221;38.704;0.152;2024-01-30T07:44:14;11.80;99.90
10175;DHT22;18221;38.704;0.152;2024-01-30T07:46:43;11.80;99.90
10175;DHT22;18221;38.704;0.152;2024-01-30T07:49:11;11.80;99.90
10175;DHT22;18221;38.704;0.152;2024-01-30T07:51:41;11.90;99.90
10175;DHT22;18221;38.704;0.152;2024-01-30T07:54:17;11.90;99.90
10175;DHT22;18221;38.704;0.152;2024-01-30T07:56:45;11.90;99.90
10175;DHT22;18221;38.704;0.152;2024-01-30T07:59:13;11.90;99.90
10175;DHT22;18221;38.704;0.152;2024-01-30T08:01:41;11.90;99.90
10175;DHT22;18221;38.704;0.152;2024-01-30T08:04:09;11.90;99.90
10175;DHT22;18221;38.704;0.152;2024-01-30T08:06:37;11.90;99.90
10175;DHT22;18221;38.704;0.152;2024-01-30T08:09:06;11.90;99.90
10175;DHT22;18221;38.704;0.152;2024-01-30T08:11:34;12.00;99.90
10175;DHT22;18221;38.704;0.152;2024-01-30T08:14:02;12.00;99.90
10175;DHT22;18221;38.704;0.152;2024-01-30T08:16:30;12.00;99.90
10175;DHT22;18221;38.704;0.152;2024-01-30T08:18:59;12.00;99.90
10175;DHT22;18221;38.704;0.152;2024-01-30T08:21:27;12.00;99.90
10175;DHT22;18221;38.704;0.152;2024-01-30T08:23:55;12.00;99.90
10175;DHT22;18221;38.704;0.152;2024-01-30T08:26:24;12.10;99.90
10175;DHT22;18221;38.704;0.152;2024-01-30T08:28:52;12.10;99.90
10175;DHT22;18221;38.704;0.152;2024-01-30T08:31:20;12.10;99.90
10175;DHT22;18221;38.704;0.152;2024-01-30T08:33:49;12.10;99.90
10175;DHT22;18221;38.704;0.152;2024-01-30T08:36:17;12.10;99.90
10175;DHT22;18221;38.704;0.152;2024-01-30T08:38:45;12.10;99.90
10175;DHT22;18221;38.704;0.152;2024-01-30T08:41:13;12.10;99.90
10175;DHT22;18221;38.704;0.152;2024-01-30T08:43:43;12.20;99.90
10175;DHT22;18221;38.704;0.152;2024-01-30T08:46:12;12.20;99.90
10175;DHT22;18221;38.704;0.152;2024-01-30T08:48:41;12.20;99.90
10175;DHT22;18221;38.704;0.152;2024-01-30T08:51:09;12.20;99.90
10175;DHT22;18221;38.704;0.152;2024-01-30T08:53:37;12.20;99.90
10175;DHT22;18221;38.704;0.152;2024-01-30T08:56:07;12.20;99.90
10175;DHT22;18221;38.704;0.152;2024-01-30T08:58:35;12.20;99.90
10175;DHT22;18221;38.704;0.152;2024-01-30T09:01:04;12.20;99.90
10175;DHT22;18221;38.704;0.152;2024-01-30T09:03:33;12.10;99.90
10175;DHT22;18221;38.704;0.152;2024-01-30T09:06:02;12.20;99.90
10175;DHT22;18221;38.704;0.152;2024-01-30T09:08:31;12.20;99.90
10175;DHT22;18221;38.704;0.152;2024-01-30T09:10:59;12.20;99.90
10175;DHT22;18221;38.704;0.152;2024-01-30T09:13:27;12.20;99.90
10175;DHT22;18221;38.704;0.152;2024-01-30T09:15:55;12.20;99.90
10175;DHT22;18221;38.704;0.152;2024-01-30T09:18:24;12.30;99.90
10175;DHT22;18221;38.704;0.152;2024-01-30T09:20:52;12.30;99.90
10175;DHT22;18221;38.704;0.152;2024-01-30T09:23:20;12.30;99.90
10175;DHT22;18221;38.704;0.152;2024-01-30T09:25:48;12.30;99.90
10175;DHT22;18221;38.704;0.152;2024-01-30T09:28:17;12.30;99.90
10175;DHT22;18221;38.704;0.152;2024-01-30T09:30:45;12.30;99.90
10175;DHT22;18221;38.704;0.152;2024-01-30T09:33:16;12.30;99.90
10175;DHT22;18221;38.704;0.152;2024-01-30T09:35:45;12.30;99.90
10175;DHT22;18221;38.704;0.152;2024-01-30T09:38:13;12.30;99.90
10175;DHT22;18221;38.704;0.152;2024-01-30T09:40:41;12.40;99.90
10175;DHT22;18221;38.704;0.152;2024-01-30T09:43:15;12.40;99.90
10175;DHT22;18221;38.704;0.152;2024-01-30T09:45:48;12.40;99.90
10175;DHT22;18221;38.704;0.152;2024-01-30T09:48:17;12.50;99.90
10175;DHT22;18221;38.704;0.152;2024-01-30T09:50:48;12.50;99.90
10175;DHT22;18221;38.704;0.152;2024-01-30T09:53:16;12.60;99.90
10175;DHT22;18221;38.704;0.152;2024-01-30T09:55:46;12.60;99.90
10175;DHT22;18221;38.704;0.152;2024-01-30T09:58:15;12.70;99.90
10175;DHT22;18221;38.704;0.152;2024-01-30T10:00:43;13.50;99.90
10175;DHT22;18221;38.704;0.152;2024-01-30T10:03:11;12.90;99.90
10175;DHT22;18221;38.704;0.152;2024-01-30T10:05:40;13.00;99.90
10175;DHT22;18221;38.704;0.152;2024-01-30T10:08:13;13.00;99.90
10175;DHT22;18221;38.704;0.152;2024-01-30T10:10:46;13.00;99.90
10175;DHT22;18221;38.704;0.152;2024-01-30T10:13:15;13.10;99.90
10175;DHT22;18221;38.704;0.152;2024-01-30T10:15:44;13.10;99.90
10175;DHT22;18221;38.704;0.152;2024-01-30T10:18:12;13.20;99.90
10175;DHT22;18221;38.704;0.152;2024-01-30T10:20:40;13.30;99.90
10175;DHT22;18221;38.704;0.152;2024-01-30T10:23:09;13.30;99.90
10175;DHT22;18221;38.704;0.152;2024-01-30T10:25:38;13.40;99.90
10175;DHT22;18221;38.704;0.152;2024-01-30T10:28:07;13.40;99.90
10175;DHT22;18221;38.704;0.152;2024-01-30T10:30:35;13.30;99.90
10175;DHT22;18221;38.704;0.152;2024-01-30T10:33:04;13.40;99.90
10175;DHT22;18221;38.704;0.152;2024-01-30T10:35:32;13.40;99.90
10175;DHT22;18221;38.704;0.152;2024-01-30T10:38:00;13.50;99.90
10175;DHT22;18221;38.704;0.152;2024-01-30T10:40:29;13.60;99.90
10175;DHT22;18221;38.704;0.152;2024-01-30T10:43:02;13.60;99.90
10175;DHT22;18221;38.704;0.152;2024-01-30T10:45:32;13.80;99.90
10175;DHT22;18221;38.704;0.152;2024-01-30T10:48:05;13.80;99.90
10175;DHT22;18221;38.704;0.152;2024-01-30T10:50:37;13.90;99.90
10175;DHT22;18221;38.704;0.152;2024-01-30T10:53:08;13.90;99.90
10175;DHT22;18221;38.704;0.152;2024-01-30T10:55:37;13.90;99.90
10175;DHT22;18221;38.704;0.152;2024-01-30T10:58:08;14.00;99.90
10175;DHT22;18221;38.704;0.152;2024-01-30T11:00:38;14.00;99.90
10175;DHT22;18221;38.704;0.152;2024-01-30T11:03:06;14.10;99.90
10175;DHT22;18221;38.704;0.152;2024-01-30T11:05:34;14.10;99.90
10175;DHT22;18221;38.704;0.152;2024-01-30T11:08:11;14.00;99.90
10175;DHT22;18221;38.704;0.152;2024-01-30T11:10:46;14.00;99.90
10175;DHT22;18221;38.704;0.152;2024-01-30T11:13:19;14.00;99.90
10175;DHT22;18221;38.704;0.152;2024-01-30T11:15:48;14.00;99.90
10175;DHT22;18221;38.704;0.152;2024-01-30T11:18:23;14.00;99.90
10175;DHT22;18221;38.704;0.152;2024-01-30T11:20:52;14.00;99.90
10175;DHT22;18221;38.704;0.152;2024-01-30T11:23:23;14.00;99.90
10175;DHT22;18221;38.704;0.152;2024-01-30T11:25:52;14.00;99.90
10175;DHT22;18221;38.704;0.152;2024-01-30T11:28:23;14.00;99.90
10175;DHT22;18221;38.704;0.152;2024-01-30T11:30:51;14.00;99.90
10175;DHT22;18221;38.704;0.152;2024-01-30T11:33:30;14.00;99.90
10175;DHT22;18221;38.704;0.152;2024-01-30T11:35:59;14.00;99.90
10175;DHT22;18221;38.704;0.152;2024-01-30T11:38:28;14.00;99.90
10175;DHT22;18221;38.704;0.152;2024-01-30T11:40:56;14.00;99.90
10175;DHT22;18221;38.704;0.152;2024-01-30T11:43:26;14.10;99.90
10175;DHT22;18221;38.704;0.152;2024-01-30T11:45:54;14.10;99.90
10175;DHT22;18221;38.704;0.152;2024-01-30T11:48:22;14.10;99.90
10175;DHT22;18221;38.704;0.152;2024-01-30T11:50:50;14.10;99.90
10175;DHT22;18221;38.704;0.152;2024-01-30T11:53:18;14.00;99.90
10175;DHT22;18221;38.704;0.152;2024-01-30T11:55:50;13.90;99.90
10175;DHT22;18221;38.704;0.152;2024-01-30T11:58:18;13.90;99.90
10175;DHT22;18221;38.704;0.152;2024-01-30T12:00:55;13.80;99.90
10175;DHT22;18221;38.704;0.152;2024-01-30T12:03:23;13.80;99.90
10175;DHT22;18221;38.704;0.152;2024-01-30T12:05:56;13.70;99.90
10175;DHT22;18221;38.704;0.152;2024-01-30T12:08:25;13.70;99.90
10175;DHT22;18221;38.704;0.152;2024-01-30T12:10:57;13.70;99.90
10175;DHT22;18221;38.704;0.152;2024-01-30T12:13:27;13.70;99.90
10175;DHT22;18221;38.704;0.152;2024-01-30T12:15:57;13.70;99.90
10175;DHT22;18221;38.704;0.152;2024-01-30T12:18:26;13.80;99.90
10175;DHT22;18221;38.704;0.152;2024-01-30T12:20:57;13.80;99.90
10175;DHT22;18221;38.704;0.152;2024-01-30T12:23:26;13.80;99.90
10175;DHT22;18221;38.704;0.152;2024-01-30T12:25:55;13.90;99.90
10175;DHT22;18221;38.704;0.152;2024-01-30T12:28:25;13.90;99.90
10175;DHT22;18221;38.704;0.152;2024-01-30T12:31:00;14.00;99.90
10175;DHT22;18221;38.704;0.152;2024-01-30T12:33:29;14.00;99.90
10175;DHT22;18221;38.704;0.152;2024-01-30T12:36:00;14.10;99.90
10175;DHT22;18221;38.704;0.152;2024-01-30T12:38:29;14.10;99.90
10175;DHT22;18221;38.704;0.152;2024-01-30T12:40:57;14.10;99.90
10175;DHT22;18221;38.704;0.152;2024-01-30T12:43:25;14.20;99.90
10175;DHT22;18221;38.704;0.152;2024-01-30T12:45:54;14.20;99.90
10175;DHT22;18221;38.704;0.152;2024-01-30T12:48:23;14.60;99.90
10175;DHT22;18221;38.704;0.152;2024-01-30T12:50:51;14.20;99.90
10175;DHT22;18221;38.704;0.152;2024-01-30T12:53:19;14.20;99.90
10175;DHT22;18221;38.704;0.152;2024-01-30T12:55:47;14.20;99.90
10175;DHT22;18221;38.704;0.152;2024-01-30T12:58:15;14.20;99.90
10175;DHT22;18221;38.704;0.152;2024-01-30T13:00:43;14.30;99.90
10175;DHT22;18221;38.704;0.152;2024-01-30T13:03:11;14.40;99.90
10175;DHT22;18221;38.704;0.152;2024-01-30T13:05:41;14.40;99.90
10175;DHT22;18221;38.704;0.152;2024-01-30T13:08:10;14.50;99.90
10175;DHT22;18221;38.704;0.152;2024-01-30T13:10:38;14.50;99.90
10175;DHT22;18221;38.704;0.152;2024-01-30T13:13:06;14.50;99.90
10175;DHT22;18221;38.704;0.152;2024-01-30T13:15:35;14.60;99.90
10175;DHT22;18221;38.704;0.152;2024-01-30T13:18:03;14.60;99.90
10175;DHT22;18221;38.704;0.152;2024-01-30T13:20:31;14.50;99.90
10175;DHT22;18221;38.704;0.152;2024-01-30T13:23:01;14.50;99.90
10175;DHT22;18221;38.704;0.152;2024-01-30T13:25:29;14.40;99.90
10175;DHT22;18221;38.704;0.152;2024-01-30T13:27:57;14.40;99.90
10175;DHT22;18221;38.704;0.152;2024-01-30T13:30:25;14.40;99.90
10175;DHT22;18221;38.704;0.152;2024-01-30T13:32:53;14.40;99.90
10175;DHT22;18221;38.704;0.152;2024-01-30T13:35:23;14.30;99.90
10175;DHT22;18221;38.704;0.152;2024-01-30T13:37:51;14.30;99.90
10175;DHT22;18221;38.704;0.152;2024-01-30T13:40:21;14.20;99.90
10175;DHT22;18221;38.704;0.152;2024-01-30T13:42:49;14.20;99.90
10175;DHT22;18221;38.704;0.152;2024-01-30T13:45:17;14.20;99.90
10175;DHT22;18221;38.704;0.152;2024-01-30T13:47:45;14.20;99.90
10175;DHT22;18221;38.704;0.152;2024-01-30T13:50:13;14.20;99.90
10175;DHT22;18221;38.704;0.152;2024-01-30T13:52:41;14.10;99.90
10175;DHT22;18221;38.704;0.152;2024-01-30T13:55:09;14.20;99.90
10175;DHT22;18221;38.704;0.152;2024-01-30T13:57:38;14.20;99.90
10175;DHT22;18221;38.704;0.152;2024-01-30T14:00:07;14.20;99.90
10175;DHT22;18221;38.704;0.152;2024-01-30T14:02:36;14.20;99.90
10175;DHT22;18221;38.704;0.152;2024-01-30T14:05:05;14.20;99.90
10175;DHT22;18221;38.704;0.152;2024-01-30T14:07:35;12.80;99.90
10175;DHT22;18221;38.704;0.152;2024-01-30T14:10:06;14.40;99.90
10175;DHT22;18221;38.704;0.152;2024-01-30T14:12:36;14.40;99.90
10175;DHT22;18221;38.704;0.152;2024-01-30T14:15:07;14.40;99.90
10175;DHT22;18221;38.704;0.152;2024-01-30T14:17:36;14.40;99.90
10175;DHT22;18221;38.704;0.152;2024-01-30T14:20:06;14.40;99.90
10175;DHT22;18221;38.704;0.152;2024-01-30T14:22:34;14.40;99.90
10175;DHT22;18221;38.704;0.152;2024-01-30T14:25:03;14.40;99.90
10175;DHT22;18221;38.704;0.152;2024-01-30T14:27:31;14.50;99.90
10175;DHT22;18221;38.704;0.152;2024-01-30T14:30:01;14.60;99.90
10175;DHT22;18221;38.704;0.152;2024-01-30T14:32:30;14.50;99.90
10175;DHT22;18221;38.704;0.152;2024-01-30T14:34:59;14.50;99.90
10175;DHT22;18221;38.704;0.152;2024-01-30T14:37:26;14.40;99.90
10175;DHT22;18221;38.704;0.152;2024-01-30T14:39:56;14.30;99.90
10175;DHT22;18221;38.704;0.152;2024-01-30T14:42:24;14.30;99.90
10175;DHT22;18221;38.704;0.152;2024-01-30T14:44:53;14.30;99.90
10175;DHT22;18221;38.704;0.152;2024-01-30T14:47:22;14.20;99.90
10175;DHT22;18221;38.704;0.152;2024-01-30T14:49:50;14.20;99.90
10175;DHT22;18221;38.704;0.152;2024-01-30T14:52:19;14.20;99.90
10175;DHT22;18221;38.704;0.152;2024-01-30T14:54:46;14.10;99.90
10175;DHT22;18221;38.704;0.152;2024-01-30T14:57:17;14.10;99.90
10175;DHT22;18221;38.704;0.152;2024-01-30T14:59:46;14.20;99.90
10175;DHT22;18221;38.704;0.152;2024-01-30T15:02:14;14.10;99.90
10175;DHT22;18221;38.704;0.152;2024-01-30T15:04:44;14.20;99.90
10175;DHT22;18221;38.704;0.152;2024-01-30T15:07:12;14.10;99.90
10175;DHT22;18221;38.704;0.152;2024-01-30T15:09:40;14.10;99.90
10175;DHT22;18221;38.704;0.152;2024-01-30T15:12:08;14.10;99.90
10175;DHT22;18221;38.704;0.152;2024-01-30T15:14:36;14.10;99.90
10175;DHT22;18221;38.704;0.152;2024-01-30T15:17:04;14.10;99.90
10175;DHT22;18221;38.704;0.152;2024-01-30T15:19:32;14.10;99.90
10175;DHT22;18221;38.704;0.152;2024-01-30T15:22:02;14.10;99.90
10175;DHT22;18221;38.704;0.152;2024-01-30T15:24:30;14.10;99.90
10175;DHT22;18221;38.704;0.152;2024-01-30T15:26:58;14.00;99.90
10175;DHT22;18221;38.704;0.152;2024-01-30T15:29:26;14.00;99.90
10175;DHT22;18221;38.704;0.152;2024-01-30T15:31:54;13.90;99.90
10175;DHT22;18221;38.704;0.152;2024-01-30T15:34:22;13.90;99.90
10175;DHT22;18221;38.704;0.152;2024-01-30T15:36:50;13.90;99.90
10175;DHT22;18221;38.704;0.152;2024-01-30T15:39:22;15.10;99.90
10175;DHT22;18221;38.704;0.152;2024-01-30T15:41:50;13.90;99.90
10175;DHT22;18221;38.704;0.152;2024-01-30T15:44:19;13.80;99.90
10175;DHT22;18221;38.704;0.152;2024-01-30T15:46:47;13.90;99.90
10175;DHT22;18221;38.704;0.152;2024-01-30T15:49:15;13.80;99.90
10175;DHT22;18221;38.704;0.152;2024-01-30T15:51:43;13.70;99.90